Terminal Aerodrome Forecast
Issued by NWS

Home | Current Version | Previous Version | Graphics & Text | Print | Product List | Glossary On
Versions: 1 2 3 4 5 6 7 8 9 10 11 12 13 14
152
FTUS43 KBIS 241120
TAFJMS
TAF
KJMS 241120Z 2412/2512 18011KT P6SM FEW090 BKN250
     FM242100 16014KT P6SM FEW110 FEW200
     FM250900 12007KT P6SM FEW100 SCT200
     FM251100 07008KT P6SM FEW090 SCT100=

USA.gov is the U.S. government's official web portal to all federal, state and local government web resources and services.